Mount Pleasant, MI

3:26 PM EDT on September 01, 2014 (GMT -0400)
Chippewa Township | Change Station
CLOSE
Current Station
Personal Weather Station
Location: Mt Pleasant, MI
Elevation: 755 ft
Nearby Weather Stations

Elev 755 ft 43.63 °N, 84.65 °W | Updated 1 minute ago

Overcast
Overcast
71.8 °F
Feels Like 77 °F
N
0.0
Wind Variable Wind from South
Gusts 15.0 mph

Today
High -- | Low -- °F
--% Chance of Precip.
Yesterday
High -- | Low -- °F
Precip. -- in
7:02 AM 8:14 PM
Waxing Crescent, 43% visible
Pressure 29.73 in
Visibility 10.0 miles
Clouds Scattered Clouds 1600 ft
Scattered Clouds 5500 ft
Overcast 8500 ft
Heat Index 77 °F
Dew Point 49 °F
Humidity 44%
Rainfall -999.00 in
Snow Depth Not available.
UV 2 out of 12
Pollen 7.10 out of 12
Ozone Good
Flu Activity Not available.
METAR KMOP 011917Z AUTO 20006KT 10SM SCT016 SCT055 OVC085 22/21 A2973 RMK AO2 T02180209

More Conditions Fewer Conditions

Pressure 29.73 in
Visibility 10.0 miles
Clouds Scattered Clouds 1600 ft
Scattered Clouds 5500 ft
Overcast 8500 ft
Heat Index 77 °F
Dew Point 49 °F
Humidity 44%
Rainfall -999.00 in
Snow Depth Not available.
UV 2 out of 12
Pollen 7.10 out of 12
Ozone Good
Flu Activity Not available.
METAR KMOP 011917Z AUTO 20006KT 10SM SCT016 SCT055 OVC085 22/21 A2973 RMK AO2 T02180209

More Conditions Fewer Conditions

10-Day Weather Forecast

Almanac

Astronomy

Sep. 01, 2014 Rise Set
Actual Time 7:02 AM EDT 8:14 PM EDT
Civil Twilight 6:32 AM EDT 8:43 PM EDT
Nautical Twilight 5:57 AM EDT 9:18 PM EDT
Astronomical Twilight 5:20 AM EDT 9:56 PM EDT
Moon 1:59 PM EDT No Moon Set
Length of Visible Light 14h 10m
Length of Day
13h 11m
Tomorrow will be 2m 53s shorter.
Waxing Crescent, 43% of the Moon is Illuminated
Today
Waxing Crescent
Sep 2
First Quarter
Sep 8
Full
Sep 15
Last Quarter
Sep 24
New

Today's Extremes

State Highs State Lows

Community

WunderPhotos

Upload Photos

1,749,378 photos uploaded!

WunderBlogs® & News

Nearby

Air Quality

  Air Quality AQ Index Pollutant
Yesterday Good
OZONE
Current Good
OZONE
Monday Good
OZONE
Monday Good
PM2.5
Tuesday Good
OZONE
Tuesday Good
PM2.5

Snow Depth

Station Depth Elevation
No new snow has been reported.

Earthquake Activity

City Distance Mag. Time & Date
No recent earthquake activity has been reported nearby.
Minimum magnitude displayed is 2.5.

Coastal Water Temperatures

Place Temperature
No Stations Reporting

Nearby Weather Stations